sensor_id;sensor_type;location;lat;lon;timestamp;pressure;altitude;pressure_sealevel;temperature;humidity
31044;BME280;17710;52.520;13.352;2022-08-21T00:01:37;101203.72;;;25.22;57.47
31044;BME280;17710;52.520;13.352;2022-08-21T00:04:05;101209.00;;;25.24;57.87
31044;BME280;17710;52.520;13.352;2022-08-21T00:06:34;101208.00;;;25.25;58.00
31044;BME280;17710;52.520;13.352;2022-08-21T00:09:01;101207.69;;;25.18;58.06
31044;BME280;17710;52.520;13.352;2022-08-21T00:11:28;101215.06;;;25.07;58.27
31044;BME280;17710;52.520;13.352;2022-08-21T00:13:55;101211.34;;;25.08;58.01
31044;BME280;17710;52.520;13.352;2022-08-21T00:16:21;101217.66;;;24.87;58.53
31044;BME280;17710;52.520;13.352;2022-08-21T00:18:50;101212.72;;;24.72;58.74
31044;BME280;17710;52.520;13.352;2022-08-21T00:21:16;101209.91;;;24.73;58.28
31044;BME280;17710;52.520;13.352;2022-08-21T00:23:43;101198.03;;;24.65;58.92
31044;BME280;17710;52.520;13.352;2022-08-21T00:26:10;101203.47;;;24.95;57.95
31044;BME280;17710;52.520;13.352;2022-08-21T00:28:44;101201.91;;;24.72;58.33
31044;BME280;17710;52.520;13.352;2022-08-21T00:31:14;101206.47;;;24.92;58.06
31044;BME280;17710;52.520;13.352;2022-08-21T00:33:41;101200.63;;;24.96;57.62
31044;BME280;17710;52.520;13.352;2022-08-21T00:36:08;101205.78;;;24.99;57.46
31044;BME280;17710;52.520;13.352;2022-08-21T00:38:35;101204.81;;;24.80;57.70
31044;BME280;17710;52.520;13.352;2022-08-21T00:41:03;101207.00;;;24.65;58.52
31044;BME280;17710;52.520;13.352;2022-08-21T00:43:34;101215.56;;;24.70;58.65
31044;BME280;17710;52.520;13.352;2022-08-21T00:46:04;101209.94;;;24.62;58.66
31044;BME280;17710;52.520;13.352;2022-08-21T00:48:31;101211.34;;;24.56;58.90
31044;BME280;17710;52.520;13.352;2022-08-21T00:51:00;101218.25;;;24.49;59.35
31044;BME280;17710;52.520;13.352;2022-08-21T00:53:28;101209.72;;;24.44;59.60
31044;BME280;17710;52.520;13.352;2022-08-21T00:55:56;101203.25;;;24.36;60.58
31044;BME280;17710;52.520;13.352;2022-08-21T00:58:25;101198.38;;;24.30;60.68
31044;BME280;17710;52.520;13.352;2022-08-21T01:00:52;101204.91;;;24.27;61.00
31044;BME280;17710;52.520;13.352;2022-08-21T01:03:23;101205.03;;;24.26;61.07
31044;BME280;17710;52.520;13.352;2022-08-21T01:05:51;101200.91;;;24.21;61.24
31044;BME280;17710;52.520;13.352;2022-08-21T01:08:18;101202.22;;;24.16;61.42
31044;BME280;17710;52.520;13.352;2022-08-21T01:10:46;101202.75;;;24.10;62.03
31044;BME280;17710;52.520;13.352;2022-08-21T01:13:15;101215.78;;;23.73;63.00
31044;BME280;17710;52.520;13.352;2022-08-21T01:15:45;101206.84;;;23.72;63.45
31044;BME280;17710;52.520;13.352;2022-08-21T01:18:14;101210.63;;;23.70;63.67
31044;BME280;17710;52.520;13.352;2022-08-21T01:20:45;101207.38;;;23.55;64.02
31044;BME280;17710;52.520;13.352;2022-08-21T01:23:13;101212.44;;;23.49;64.03
31044;BME280;17710;52.520;13.352;2022-08-21T01:25:40;101215.13;;;23.26;64.92
31044;BME280;17710;52.520;13.352;2022-08-21T01:28:10;101206.56;;;23.10;65.33
31044;BME280;17710;52.520;13.352;2022-08-21T01:30:40;101210.19;;;23.31;64.43
31044;BME280;17710;52.520;13.352;2022-08-21T01:33:08;101206.59;;;23.64;63.24
31044;BME280;17710;52.520;13.352;2022-08-21T01:35:34;101201.59;;;23.60;62.99
31044;BME280;17710;52.520;13.352;2022-08-21T01:38:01;101205.41;;;23.57;62.21
31044;BME280;17710;52.520;13.352;2022-08-21T01:40:29;101212.28;;;23.61;61.97
31044;BME280;17710;52.520;13.352;2022-08-21T01:42:58;101218.19;;;23.87;60.76
31044;BME280;17710;52.520;13.352;2022-08-21T01:45:25;101215.03;;;24.03;59.86
31044;BME280;17710;52.520;13.352;2022-08-21T01:47:53;101213.53;;;24.10;59.03
31044;BME280;17710;52.520;13.352;2022-08-21T01:50:20;101222.97;;;24.27;58.29
31044;BME280;17710;52.520;13.352;2022-08-21T01:52:47;101215.38;;;23.89;57.52
31044;BME280;17710;52.520;13.352;2022-08-21T01:55:16;101217.56;;;23.83;58.44
31044;BME280;17710;52.520;13.352;2022-08-21T01:57:44;101219.59;;;23.70;57.80
31044;BME280;17710;52.520;13.352;2022-08-21T02:00:14;101222.22;;;23.93;57.47
31044;BME280;17710;52.520;13.352;2022-08-21T02:02:42;101219.22;;;23.75;56.77
31044;BME280;17710;52.520;13.352;2022-08-21T02:05:11;101219.91;;;23.88;57.14
31044;BME280;17710;52.520;13.352;2022-08-21T02:07:41;101213.28;;;23.49;56.78
31044;BME280;17710;52.520;13.352;2022-08-21T02:10:11;101219.53;;;23.50;57.29
31044;BME280;17710;52.520;13.352;2022-08-21T02:12:38;101218.38;;;23.63;56.62
31044;BME280;17710;52.520;13.352;2022-08-21T02:15:08;101215.31;;;23.45;56.86
31044;BME280;17710;52.520;13.352;2022-08-21T02:17:40;101213.63;;;23.56;56.53
31044;BME280;17710;52.520;13.352;2022-08-21T02:20:08;101216.53;;;23.64;55.80
31044;BME280;17710;52.520;13.352;2022-08-21T02:22:35;101212.91;;;23.42;56.08
31044;BME280;17710;52.520;13.352;2022-08-21T02:25:07;101210.19;;;23.31;57.02
31044;BME280;17710;52.520;13.352;2022-08-21T02:27:37;101221.00;;;23.54;56.20
31044;BME280;17710;52.520;13.352;2022-08-21T02:30:08;101207.34;;;23.44;56.76
31044;BME280;17710;52.520;13.352;2022-08-21T02:32:35;101217.94;;;23.47;56.91
31044;BME280;17710;52.520;13.352;2022-08-21T02:35:02;101214.56;;;23.66;56.54
31044;BME280;17710;52.520;13.352;2022-08-21T02:37:30;101214.97;;;23.93;55.65
31044;BME280;17710;52.520;13.352;2022-08-21T02:39:58;101214.03;;;23.83;55.84
31044;BME280;17710;52.520;13.352;2022-08-21T02:42:24;101214.13;;;23.93;55.75
31044;BME280;17710;52.520;13.352;2022-08-21T02:44:51;101214.34;;;24.01;56.00
31044;BME280;17710;52.520;13.352;2022-08-21T02:47:19;101213.31;;;23.81;56.25
31044;BME280;17710;52.520;13.352;2022-08-21T02:49:45;101209.69;;;23.60;57.06
31044;BME280;17710;52.520;13.352;2022-08-21T02:52:11;101208.00;;;23.48;57.29
31044;BME280;17710;52.520;13.352;2022-08-21T02:54:39;101213.13;;;23.39;57.86
31044;BME280;17710;52.520;13.352;2022-08-21T02:57:06;101207.72;;;23.62;57.47
31044;BME280;17710;52.520;13.352;2022-08-21T02:59:33;101219.56;;;23.81;56.83
31044;BME280;17710;52.520;13.352;2022-08-21T03:02:00;101219.06;;;23.88;56.43
31044;BME280;17710;52.520;13.352;2022-08-21T03:04:29;101227.09;;;23.44;57.02
31044;BME280;17710;52.520;13.352;2022-08-21T03:06:57;101219.75;;;23.47;56.89
31044;BME280;17710;52.520;13.352;2022-08-21T03:09:23;101218.31;;;23.20;57.67
31044;BME280;17710;52.520;13.352;2022-08-21T03:11:50;101216.72;;;23.07;57.57
31044;BME280;17710;52.520;13.352;2022-08-21T03:14:17;101209.25;;;22.88;58.30
31044;BME280;17710;52.520;13.352;2022-08-21T03:16:43;101207.28;;;23.23;57.43
31044;BME280;17710;52.520;13.352;2022-08-21T03:19:10;101216.09;;;23.25;56.88
31044;BME280;17710;52.520;13.352;2022-08-21T03:21:37;101206.75;;;23.40;56.68
31044;BME280;17710;52.520;13.352;2022-08-21T03:24:04;101204.31;;;23.37;56.19
31044;BME280;17710;52.520;13.352;2022-08-21T03:26:32;101206.16;;;23.26;56.26
31044;BME280;17710;52.520;13.352;2022-08-21T03:28:59;101214.38;;;23.24;56.15
31044;BME280;17710;52.520;13.352;2022-08-21T03:31:25;101208.38;;;22.98;56.47
31044;BME280;17710;52.520;13.352;2022-08-21T03:33:55;101217.34;;;23.21;55.98
31044;BME280;17710;52.520;13.352;2022-08-21T03:36:24;101217.56;;;22.74;56.79
31044;BME280;17710;52.520;13.352;2022-08-21T03:38:52;101207.25;;;22.56;57.44
31044;BME280;17710;52.520;13.352;2022-08-21T03:41:18;101209.66;;;22.37;58.08
31044;BME280;17710;52.520;13.352;2022-08-21T03:43:48;101208.44;;;22.41;57.85
31044;BME280;17710;52.520;13.352;2022-08-21T03:46:17;101208.59;;;22.51;57.49
31044;BME280;17710;52.520;13.352;2022-08-21T03:48:43;101211.16;;;22.63;57.39
31044;BME280;17710;52.520;13.352;2022-08-21T03:51:10;101209.72;;;22.71;56.81
31044;BME280;17710;52.520;13.352;2022-08-21T03:53:46;101205.81;;;22.75;56.42
31044;BME280;17710;52.520;13.352;2022-08-21T03:56:14;101211.22;;;22.86;56.48
31044;BME280;17710;52.520;13.352;2022-08-21T03:58:46;101209.63;;;22.83;55.97
31044;BME280;17710;52.520;13.352;2022-08-21T04:01:13;101212.72;;;22.44;56.65
31044;BME280;17710;52.520;13.352;2022-08-21T04:03:39;101218.22;;;22.31;57.22
31044;BME280;17710;52.520;13.352;2022-08-21T04:06:07;101215.94;;;22.14;57.40
31044;BME280;17710;52.520;13.352;2022-08-21T04:08:33;101216.50;;;22.30;57.06
31044;BME280;17710;52.520;13.352;2022-08-21T04:11:00;101227.38;;;22.40;56.83
31044;BME280;17710;52.520;13.352;2022-08-21T04:13:28;101227.53;;;22.49;56.55
31044;BME280;17710;52.520;13.352;2022-08-21T04:15:55;101230.06;;;22.86;55.64
31044;BME280;17710;52.520;13.352;2022-08-21T04:18:23;101228.31;;;22.62;55.91
31044;BME280;17710;52.520;13.352;2022-08-21T04:20:51;101231.25;;;22.71;55.43
31044;BME280;17710;52.520;13.352;2022-08-21T04:23:19;101228.06;;;22.65;55.36
31044;BME280;17710;52.520;13.352;2022-08-21T04:25:46;101227.97;;;22.32;56.01
31044;BME280;17710;52.520;13.352;2022-08-21T04:28:12;101236.06;;;21.97;56.77
31044;BME280;17710;52.520;13.352;2022-08-21T04:30:40;101227.19;;;22.19;56.54
31044;BME280;17710;52.520;13.352;2022-08-21T04:33:06;101232.44;;;22.44;56.21
31044;BME280;17710;52.520;13.352;2022-08-21T04:35:33;101215.56;;;22.64;54.94
31044;BME280;17710;52.520;13.352;2022-08-21T04:37:59;101228.44;;;22.72;54.59
31044;BME280;17710;52.520;13.352;2022-08-21T04:40:29;101227.41;;;22.97;54.35
31044;BME280;17710;52.520;13.352;2022-08-21T04:42:57;101235.72;;;22.83;53.90
31044;BME280;17710;52.520;13.352;2022-08-21T04:45:29;101229.34;;;22.95;53.86
31044;BME280;17710;52.520;13.352;2022-08-21T04:48:00;101226.88;;;22.81;53.98
31044;BME280;17710;52.520;13.352;2022-08-21T04:50:29;101227.00;;;23.13;53.00
31044;BME280;17710;52.520;13.352;2022-08-21T04:53:00;101232.50;;;22.78;54.12
31044;BME280;17710;52.520;13.352;2022-08-21T04:55:26;101229.88;;;22.54;54.83
31044;BME280;17710;52.520;13.352;2022-08-21T04:57:54;101242.25;;;22.67;54.61
31044;BME280;17710;52.520;13.352;2022-08-21T05:00:22;101235.38;;;22.52;54.98
31044;BME280;17710;52.520;13.352;2022-08-21T05:02:51;101232.72;;;22.63;54.56
31044;BME280;17710;52.520;13.352;2022-08-21T05:05:24;101221.31;;;22.49;54.35
31044;BME280;17710;52.520;13.352;2022-08-21T05:07:51;101225.66;;;22.39;54.95
31044;BME280;17710;52.520;13.352;2022-08-21T05:10:19;101234.00;;;22.47;55.06
31044;BME280;17710;52.520;13.352;2022-08-21T05:12:46;101243.97;;;22.57;54.73
31044;BME280;17710;52.520;13.352;2022-08-21T05:15:12;101233.22;;;22.69;54.37
31044;BME280;17710;52.520;13.352;2022-08-21T05:17:39;101235.53;;;22.62;54.57
31044;BME280;17710;52.520;13.352;2022-08-21T05:20:05;101240.53;;;22.44;54.67
31044;BME280;17710;52.520;13.352;2022-08-21T05:22:33;101239.34;;;22.71;54.26
31044;BME280;17710;52.520;13.352;2022-08-21T05:25:00;101237.44;;;22.84;53.96
31044;BME280;17710;52.520;13.352;2022-08-21T05:27:26;101240.59;;;23.11;53.50
31044;BME280;17710;52.520;13.352;2022-08-21T05:29:54;101242.47;;;23.22;53.10
31044;BME280;17710;52.520;13.352;2022-08-21T05:32:21;101246.72;;;23.24;53.22
31044;BME280;17710;52.520;13.352;2022-08-21T05:34:47;101256.78;;;23.33;52.21
31044;BME280;17710;52.520;13.352;2022-08-21T05:37:14;101250.88;;;23.39;52.04
31044;BME280;17710;52.520;13.352;2022-08-21T05:39:42;101255.81;;;23.34;51.65
31044;BME280;17710;52.520;13.352;2022-08-21T05:42:08;101265.50;;;23.48;51.86
31044;BME280;17710;52.520;13.352;2022-08-21T05:44:38;101266.59;;;23.34;51.78
31044;BME280;17710;52.520;13.352;2022-08-21T05:47:05;101256.81;;;22.65;53.67
31044;BME280;17710;52.520;13.352;2022-08-21T05:49:31;101256.63;;;22.33;55.06
31044;BME280;17710;52.520;13.352;2022-08-21T05:51:58;101259.47;;;22.43;54.83
31044;BME280;17710;52.520;13.352;2022-08-21T05:54:24;101259.88;;;22.49;54.61
31044;BME280;17710;52.520;13.352;2022-08-21T05:56:52;101265.09;;;22.75;54.14
31044;BME280;17710;52.520;13.352;2022-08-21T05:59:18;101269.16;;;23.02;53.53
31044;BME280;17710;52.520;13.352;2022-08-21T06:01:45;101267.56;;;23.11;53.22
31044;BME280;17710;52.520;13.352;2022-08-21T06:04:16;101267.31;;;23.14;52.83
31044;BME280;17710;52.520;13.352;2022-08-21T06:06:42;101272.34;;;23.08;53.06
31044;BME280;17710;52.520;13.352;2022-08-21T06:09:09;101267.56;;;23.00;53.00
31044;BME280;17710;52.520;13.352;2022-08-21T06:11:38;101269.28;;;23.12;52.79
31044;BME280;17710;52.520;13.352;2022-08-21T06:14:06;101270.78;;;23.16;52.63
31044;BME280;17710;52.520;13.352;2022-08-21T06:16:32;101275.53;;;23.57;51.51
31044;BME280;17710;52.520;13.352;2022-08-21T06:18:59;101270.34;;;23.76;51.29
31044;BME280;17710;52.520;13.352;2022-08-21T06:21:25;101268.97;;;23.93;50.06
31044;BME280;17710;52.520;13.352;2022-08-21T06:23:54;101267.28;;;23.70;50.51
31044;BME280;17710;52.520;13.352;2022-08-21T06:26:20;101265.44;;;23.70;51.02
31044;BME280;17710;52.520;13.352;2022-08-21T06:28:48;101271.00;;;23.47;51.16
31044;BME280;17710;52.520;13.352;2022-08-21T06:31:18;101272.25;;;23.54;51.23
31044;BME280;17710;52.520;13.352;2022-08-21T06:33:46;101270.84;;;23.70;50.97
31044;BME280;17710;52.520;13.352;2022-08-21T06:36:13;101272.41;;;23.84;51.09
31044;BME280;17710;52.520;13.352;2022-08-21T06:38:40;101264.53;;;23.92;50.24
31044;BME280;17710;52.520;13.352;2022-08-21T06:41:07;101267.88;;;23.84;50.66
31044;BME280;17710;52.520;13.352;2022-08-21T06:43:33;101273.19;;;23.75;50.84
31044;BME280;17710;52.520;13.352;2022-08-21T06:46:00;101272.63;;;23.92;50.04
31044;BME280;17710;52.520;13.352;2022-08-21T06:48:27;101279.78;;;23.82;50.81
31044;BME280;17710;52.520;13.352;2022-08-21T06:50:54;101279.06;;;24.23;49.87
31044;BME280;17710;52.520;13.352;2022-08-21T06:53:21;101272.25;;;24.40;49.01
31044;BME280;17710;52.520;13.352;2022-08-21T06:55:48;101266.91;;;24.70;48.63
31044;BME280;17710;52.520;13.352;2022-08-21T06:58:17;101270.91;;;24.02;49.59
31044;BME280;17710;52.520;13.352;2022-08-21T07:00:51;101267.72;;;24.29;49.24
31044;BME280;17710;52.520;13.352;2022-08-21T07:03:24;101272.28;;;24.17;49.25
31044;BME280;17710;52.520;13.352;2022-08-21T07:05:55;101270.31;;;24.31;48.59
31044;BME280;17710;52.520;13.352;2022-08-21T07:08:25;101263.53;;;24.57;47.71
31044;BME280;17710;52.520;13.352;2022-08-21T07:10:56;101267.69;;;24.40;49.23
31044;BME280;17710;52.520;13.352;2022-08-21T07:13:23;101265.25;;;24.79;47.93
31044;BME280;17710;52.520;13.352;2022-08-21T07:15:49;101262.88;;;24.85;47.20
31044;BME280;17710;52.520;13.352;2022-08-21T07:18:16;101263.53;;;24.78;47.45
31044;BME280;17710;52.520;13.352;2022-08-21T07:20:43;101260.25;;;24.74;47.58
31044;BME280;17710;52.520;13.352;2022-08-21T07:23:27;101262.53;;;25.30;46.03
31044;BME280;17710;52.520;13.352;2022-08-21T07:25:55;101256.94;;;25.52;45.79
31044;BME280;17710;52.520;13.352;2022-08-21T07:28:22;101258.97;;;25.69;45.29
31044;BME280;17710;52.520;13.352;2022-08-21T07:30:53;101256.47;;;25.47;45.29
31044;BME280;17710;52.520;13.352;2022-08-21T07:33:23;101264.75;;;25.55;44.42
31044;BME280;17710;52.520;13.352;2022-08-21T07:35:50;101254.59;;;25.88;43.32
31044;BME280;17710;52.520;13.352;2022-08-21T07:38:21;101254.56;;;25.59;43.53
31044;BME280;17710;52.520;13.352;2022-08-21T07:40:49;101248.03;;;25.71;42.55
31044;BME280;17710;52.520;13.352;2022-08-21T07:43:19;101243.44;;;25.62;42.82
31044;BME280;17710;52.520;13.352;2022-08-21T07:45:50;101248.31;;;26.06;41.53
31044;BME280;17710;52.520;13.352;2022-08-21T07:48:16;101244.16;;;25.73;41.91
31044;BME280;17710;52.520;13.352;2022-08-21T07:50:43;101250.34;;;25.45;41.11
31044;BME280;17710;52.520;13.352;2022-08-21T07:53:09;101256.00;;;25.72;41.42
31044;BME280;17710;52.520;13.352;2022-08-21T07:55:37;101250.75;;;26.19;40.25
31044;BME280;17710;52.520;13.352;2022-08-21T07:58:06;101260.50;;;26.31;40.28
31044;BME280;17710;52.520;13.352;2022-08-21T08:00:32;101253.78;;;26.45;40.09
31044;BME280;17710;52.520;13.352;2022-08-21T08:02:59;101255.88;;;26.61;39.16
31044;BME280;17710;52.520;13.352;2022-08-21T08:05:29;101251.06;;;26.35;39.72
31044;BME280;17710;52.520;13.352;2022-08-21T08:07:56;101255.03;;;26.70;39.70
31044;BME280;17710;52.520;13.352;2022-08-21T08:10:23;101248.53;;;27.00;39.02
31044;BME280;17710;52.520;13.352;2022-08-21T08:12:51;101238.38;;;26.36;39.40
31044;BME280;17710;52.520;13.352;2022-08-21T08:15:22;101249.34;;;26.53;39.64
31044;BME280;17710;52.520;13.352;2022-08-21T08:17:48;101241.34;;;26.52;39.15
31044;BME280;17710;52.520;13.352;2022-08-21T08:20:16;101252.13;;;26.81;38.19
31044;BME280;17710;52.520;13.352;2022-08-21T08:22:44;101245.06;;;27.17;37.58
31044;BME280;17710;52.520;13.352;2022-08-21T08:25:15;101241.97;;;27.02;37.65
31044;BME280;17710;52.520;13.352;2022-08-21T08:27:42;101245.00;;;27.26;37.25
31044;BME280;17710;52.520;13.352;2022-08-21T08:30:12;101248.53;;;27.36;35.73
31044;BME280;17710;52.520;13.352;2022-08-21T08:32:40;101247.78;;;27.07;35.71
31044;BME280;17710;52.520;13.352;2022-08-21T08:35:08;101245.97;;;26.88;36.08
31044;BME280;17710;52.520;13.352;2022-08-21T08:37:35;101255.72;;;26.91;35.86
31044;BME280;17710;52.520;13.352;2022-08-21T08:40:06;101264.13;;;26.98;35.78
31044;BME280;17710;52.520;13.352;2022-08-21T08:42:36;101252.59;;;26.67;35.94
31044;BME280;17710;52.520;13.352;2022-08-21T08:45:06;101257.91;;;26.49;35.99
31044;BME280;17710;52.520;13.352;2022-08-21T08:47:37;101247.50;;;26.35;36.43
31044;BME280;17710;52.520;13.352;2022-08-21T08:50:09;101252.34;;;26.50;36.57
31044;BME280;17710;52.520;13.352;2022-08-21T08:52:42;101248.75;;;26.59;36.21
31044;BME280;17710;52.520;13.352;2022-08-21T08:55:13;101247.50;;;26.44;36.73
31044;BME280;17710;52.520;13.352;2022-08-21T08:57:44;101243.41;;;26.87;36.64
31044;BME280;17710;52.520;13.352;2022-08-21T09:00:16;101242.69;;;27.04;35.71
31044;BME280;17710;52.520;13.352;2022-08-21T09:02:46;101242.41;;;26.88;35.17
31044;BME280;17710;52.520;13.352;2022-08-21T09:05:21;101239.19;;;26.65;35.98
31044;BME280;17710;52.520;13.352;2022-08-21T09:07:57;101242.75;;;26.66;35.69
31044;BME280;17710;52.520;13.352;2022-08-21T09:10:30;101233.66;;;26.57;36.01
31044;BME280;17710;52.520;13.352;2022-08-21T09:13:09;101241.44;;;26.89;35.43
31044;BME280;17710;52.520;13.352;2022-08-21T09:15:39;101247.91;;;27.15;35.04
31044;BME280;17710;52.520;13.352;2022-08-21T09:18:29;101252.03;;;27.47;34.90
31044;BME280;17710;52.520;13.352;2022-08-21T09:21:09;101252.63;;;27.95;34.28
31044;BME280;17710;52.520;13.352;2022-08-21T09:23:46;101250.72;;;27.78;34.40
31044;BME280;17710;52.520;13.352;2022-08-21T09:26:16;101244.38;;;27.69;34.12
31044;BME280;17710;52.520;13.352;2022-08-21T09:28:44;101241.16;;;27.56;34.40
31044;BME280;17710;52.520;13.352;2022-08-21T09:31:20;101245.88;;;26.90;35.37
31044;BME280;17710;52.520;13.352;2022-08-21T09:33:48;101241.56;;;27.24;35.34
31044;BME280;17710;52.520;13.352;2022-08-21T09:36:24;101242.91;;;27.75;34.63
31044;BME280;17710;52.520;13.352;2022-08-21T09:38:56;101244.75;;;27.57;34.51
31044;BME280;17710;52.520;13.352;2022-08-21T09:41:27;101246.13;;;27.51;34.64
31044;BME280;17710;52.520;13.352;2022-08-21T09:43:54;101243.19;;;27.72;34.01
31044;BME280;17710;52.520;13.352;2022-08-21T09:46:22;101242.66;;;27.86;34.02
31044;BME280;17710;52.520;13.352;2022-08-21T09:48:53;101233.03;;;27.92;33.71
31044;BME280;17710;52.520;13.352;2022-08-21T09:51:23;101224.22;;;28.25;32.80
31044;BME280;17710;52.520;13.352;2022-08-21T09:53:53;101231.50;;;28.25;31.52
31044;BME280;17710;52.520;13.352;2022-08-21T09:56:26;101245.31;;;28.13;32.14
31044;BME280;17710;52.520;13.352;2022-08-21T09:59:17;101233.22;;;28.69;32.06
31044;BME280;17710;52.520;13.352;2022-08-21T10:01:46;101239.56;;;28.52;31.19
31044;BME280;17710;52.520;13.352;2022-08-21T10:04:14;101239.03;;;27.95;32.41
31044;BME280;17710;52.520;13.352;2022-08-21T10:06:41;101239.59;;;27.44;33.29
31044;BME280;17710;52.520;13.352;2022-08-21T10:09:09;101247.38;;;27.66;33.35
31044;BME280;17710;52.520;13.352;2022-08-21T10:11:36;101234.84;;;27.28;33.23
31044;BME280;17710;52.520;13.352;2022-08-21T10:14:12;101239.84;;;27.78;33.21
31044;BME280;17710;52.520;13.352;2022-08-21T10:16:56;101235.94;;;28.08;32.51
31044;BME280;17710;52.520;13.352;2022-08-21T10:19:32;101237.00;;;28.50;32.26
31044;BME280;17710;52.520;13.352;2022-08-21T10:22:08;101236.69;;;28.53;31.75
31044;BME280;17710;52.520;13.352;2022-08-21T10:24:49;101239.34;;;27.74;32.16
31044;BME280;17710;52.520;13.352;2022-08-21T10:27:29;101236.75;;;28.44;31.84
31044;BME280;17710;52.520;13.352;2022-08-21T10:30:02;101236.03;;;28.77;31.48
31044;BME280;17710;52.520;13.352;2022-08-21T10:32:42;101235.41;;;28.66;30.40
31044;BME280;17710;52.520;13.352;2022-08-21T10:35:22;101229.03;;;28.57;30.31
31044;BME280;17710;52.520;13.352;2022-08-21T10:38:10;101229.16;;;28.73;30.65
31044;BME280;17710;52.520;13.352;2022-08-21T10:40:44;101232.88;;;28.90;29.38
31044;BME280;17710;52.520;13.352;2022-08-21T10:43:22;101240.31;;;29.14;30.18
31044;BME280;17710;52.520;13.352;2022-08-21T10:45:59;101224.50;;;28.83;30.30
31044;BME280;17710;52.520;13.352;2022-08-21T10:48:29;101233.41;;;28.93;30.88
31044;BME280;17710;52.520;13.352;2022-08-21T10:51:06;101233.56;;;28.92;31.00
31044;BME280;17710;52.520;13.352;2022-08-21T10:53:43;101229.13;;;28.91;30.62
31044;BME280;17710;52.520;13.352;2022-08-21T10:56:16;101232.28;;;28.17;30.72
31044;BME280;17710;52.520;13.352;2022-08-21T10:58:50;101230.91;;;28.57;30.97
31044;BME280;17710;52.520;13.352;2022-08-21T11:01:24;101237.09;;;28.05;30.88
31044;BME280;17710;52.520;13.352;2022-08-21T11:04:07;101236.19;;;28.14;30.58
31044;BME280;17710;52.520;13.352;2022-08-21T11:06:39;101233.50;;;28.05;30.58
31044;BME280;17710;52.520;13.352;2022-08-21T11:09:13;101236.13;;;28.50;30.46
31044;BME280;17710;52.520;13.352;2022-08-21T11:11:45;101235.72;;;28.63;29.37
31044;BME280;17710;52.520;13.352;2022-08-21T11:14:23;101228.16;;;28.48;28.41
31044;BME280;17710;52.520;13.352;2022-08-21T11:16:57;101238.09;;;28.40;28.00
31044;BME280;17710;52.520;13.352;2022-08-21T11:19:30;101232.28;;;28.17;28.31
31044;BME280;17710;52.520;13.352;2022-08-21T11:22:04;101220.91;;;28.57;28.14
31044;BME280;17710;52.520;13.352;2022-08-21T11:24:40;101226.34;;;28.83;27.75
31044;BME280;17710;52.520;13.352;2022-08-21T11:27:17;101223.66;;;28.39;27.91
31044;BME280;17710;52.520;13.352;2022-08-21T11:29:48;101224.28;;;27.98;28.67
31044;BME280;17710;52.520;13.352;2022-08-21T11:32:45;101228.53;;;28.36;27.52
31044;BME280;17710;52.520;13.352;2022-08-21T11:35:20;101214.91;;;27.74;27.72
31044;BME280;17710;52.520;13.352;2022-08-21T11:38:01;101225.13;;;27.81;28.27
31044;BME280;17710;52.520;13.352;2022-08-21T11:40:40;101227.84;;;27.63;28.82
31044;BME280;17710;52.520;13.352;2022-08-21T11:43:17;101228.00;;;27.61;28.32
31044;BME280;17710;52.520;13.352;2022-08-21T11:45:51;101221.38;;;27.64;28.49
31044;BME280;17710;52.520;13.352;2022-08-21T11:48:36;101227.28;;;27.77;28.47
31044;BME280;17710;52.520;13.352;2022-08-21T11:51:10;101210.97;;;28.22;28.27
31044;BME280;17710;52.520;13.352;2022-08-21T11:53:46;101216.44;;;28.48;28.41
31044;BME280;17710;52.520;13.352;2022-08-21T11:56:21;101213.09;;;28.80;27.84
31044;BME280;17710;52.520;13.352;2022-08-21T11:58:51;101220.47;;;29.29;27.68
31044;BME280;17710;52.520;13.352;2022-08-21T12:01:22;101213.94;;;29.40;27.15
31044;BME280;17710;52.520;13.352;2022-08-21T12:03:54;101220.03;;;29.42;26.70
31044;BME280;17710;52.520;13.352;2022-08-21T12:06:30;101224.13;;;29.38;26.56
31044;BME280;17710;52.520;13.352;2022-08-21T12:09:02;101215.31;;;29.52;27.19
31044;BME280;17710;52.520;13.352;2022-08-21T12:11:46;101219.59;;;28.61;27.63
31044;BME280;17710;52.520;13.352;2022-08-21T12:14:14;101214.16;;;28.87;27.60
31044;BME280;17710;52.520;13.352;2022-08-21T12:16:44;101210.75;;;29.19;27.40
31044;BME280;17710;52.520;13.352;2022-08-21T12:19:13;101205.00;;;29.30;26.60
31044;BME280;17710;52.520;13.352;2022-08-21T12:21:52;101205.88;;;28.97;26.22
31044;BME280;17710;52.520;13.352;2022-08-21T12:24:32;101200.44;;;28.45;26.11
31044;BME280;17710;52.520;13.352;2022-08-21T12:27:13;101204.19;;;28.26;27.29
31044;BME280;17710;52.520;13.352;2022-08-21T12:29:45;101196.97;;;28.35;27.44
31044;BME280;17710;52.520;13.352;2022-08-21T12:32:26;101194.84;;;28.46;27.80
31044;BME280;17710;52.520;13.352;2022-08-21T12:34:57;101195.13;;;28.61;28.05
31044;BME280;17710;52.520;13.352;2022-08-21T12:37:34;101200.34;;;28.80;27.88
31044;BME280;17710;52.520;13.352;2022-08-21T12:40:16;101204.16;;;28.96;27.28
31044;BME280;17710;52.520;13.352;2022-08-21T12:42:47;101195.31;;;28.68;26.71
31044;BME280;17710;52.520;13.352;2022-08-21T12:45:19;101193.28;;;28.44;28.13
31044;BME280;17710;52.520;13.352;2022-08-21T12:47:49;101194.28;;;28.86;27.79
31044;BME280;17710;52.520;13.352;2022-08-21T12:50:21;101195.63;;;28.65;27.60
31044;BME280;17710;52.520;13.352;2022-08-21T12:52:59;101193.81;;;28.99;27.81
31044;BME280;17710;52.520;13.352;2022-08-21T12:55:33;101194.88;;;29.06;27.68